sensor_id;sensor_type;location;lat;lon;timestamp;pressure;altitude;pressure_sealevel;temperature;humidity
19520;BME280;9904;52.246;20.898;2024-01-15T00:00:05;97929.53;;;0.22;100.00
19520;BME280;9904;52.246;20.898;2024-01-15T00:02:32;97920.56;;;0.23;100.00
19520;BME280;9904;52.246;20.898;2024-01-15T00:04:59;97921.81;;;0.28;100.00
19520;BME280;9904;52.246;20.898;2024-01-15T00:07:25;97925.06;;;0.12;100.00
19520;BME280;9904;52.246;20.898;2024-01-15T00:09:52;97924.06;;;0.23;100.00
19520;BME280;9904;52.246;20.898;2024-01-15T00:12:19;97915.13;;;0.24;100.00
19520;BME280;9904;52.246;20.898;2024-01-15T00:14:45;97890.84;;;0.27;100.00
19520;BME280;9904;52.246;20.898;2024-01-15T00:17:12;97894.09;;;0.21;100.00
19520;BME280;9904;52.246;20.898;2024-01-15T00:19:38;97893.94;;;0.23;100.00
19520;BME280;9904;52.246;20.898;2024-01-15T00:22:05;97887.41;;;0.17;100.00
19520;BME280;9904;52.246;20.898;2024-01-15T00:24:32;97871.13;;;0.30;100.00
19520;BME280;9904;52.246;20.898;2024-01-15T00:26:58;97870.84;;;0.23;100.00
19520;BME280;9904;52.246;20.898;2024-01-15T00:29:25;97869.56;;;0.27;100.00
19520;BME280;9904;52.246;20.898;2024-01-15T00:31:51;97869.28;;;0.30;100.00
19520;BME280;9904;52.246;20.898;2024-01-15T00:34:18;97873.19;;;0.36;100.00
19520;BME280;9904;52.246;20.898;2024-01-15T00:36:45;97864.91;;;0.39;100.00
19520;BME280;9904;52.246;20.898;2024-01-15T00:39:11;97857.50;;;0.33;100.00
19520;BME280;9904;52.246;20.898;2024-01-15T00:41:38;97855.44;;;0.27;100.00
19520;BME280;9904;52.246;20.898;2024-01-15T00:44:04;97856.13;;;0.29;100.00
19520;BME280;9904;52.246;20.898;2024-01-15T00:46:31;97854.75;;;0.25;100.00
19520;BME280;9904;52.246;20.898;2024-01-15T00:48:57;97842.69;;;0.30;100.00
19520;BME280;9904;52.246;20.898;2024-01-15T00:51:24;97846.63;;;0.26;100.00
19520;BME280;9904;52.246;20.898;2024-01-15T00:53:51;97845.13;;;0.14;100.00
19520;BME280;9904;52.246;20.898;2024-01-15T00:56:17;97843.69;;;0.20;100.00
19520;BME280;9904;52.246;20.898;2024-01-15T00:58:44;97839.09;;;0.12;100.00
19520;BME280;9904;52.246;20.898;2024-01-15T01:01:11;97836.59;;;0.10;100.00
19520;BME280;9904;52.246;20.898;2024-01-15T01:03:37;97837.28;;;0.12;100.00
19520;BME280;9904;52.246;20.898;2024-01-15T01:06:04;97825.28;;;-0.02;100.00
19520;BME280;9904;52.246;20.898;2024-01-15T01:08:31;97827.50;;;0.03;100.00
19520;BME280;9904;52.246;20.898;2024-01-15T01:10:57;97826.25;;;-0.03;100.00
19520;BME280;9904;52.246;20.898;2024-01-15T01:13:24;97812.56;;;-0.08;100.00
19520;BME280;9904;52.246;20.898;2024-01-15T01:15:50;97813.28;;;-0.06;100.00
19520;BME280;9904;52.246;20.898;2024-01-15T01:18:17;97812.41;;;-0.06;100.00
19520;BME280;9904;52.246;20.898;2024-01-15T01:20:44;97815.63;;;-0.03;100.00
19520;BME280;9904;52.246;20.898;2024-01-15T01:23:12;97813.84;;;-0.12;100.00
19520;BME280;9904;52.246;20.898;2024-01-15T01:25:38;97812.84;;;-0.11;100.00
19520;BME280;9904;52.246;20.898;2024-01-15T01:28:05;97812.84;;;-0.11;100.00
19520;BME280;9904;52.246;20.898;2024-01-15T01:30:31;97803.53;;;-0.25;100.00
19520;BME280;9904;52.246;20.898;2024-01-15T01:32:58;97811.34;;;-0.23;100.00
19520;BME280;9904;52.246;20.898;2024-01-15T01:35:25;97805.59;;;-0.19;100.00
19520;BME280;9904;52.246;20.898;2024-01-15T01:37:51;97797.34;;;-0.15;100.00
19520;BME280;9904;52.246;20.898;2024-01-15T01:40:18;97792.81;;;-0.05;100.00
19520;BME280;9904;52.246;20.898;2024-01-15T01:42:44;97797.16;;;-0.04;100.00
19520;BME280;9904;52.246;20.898;2024-01-15T01:45:11;97788.09;;;-0.11;100.00
19520;BME280;9904;52.246;20.898;2024-01-15T01:47:38;97776.31;;;-0.09;100.00
19520;BME280;9904;52.246;20.898;2024-01-15T01:50:05;97771.56;;;-0.05;100.00
19520;BME280;9904;52.246;20.898;2024-01-15T01:52:33;97773.34;;;0.04;100.00
19520;BME280;9904;52.246;20.898;2024-01-15T01:55:02;97769.75;;;-0.05;100.00
19520;BME280;9904;52.246;20.898;2024-01-15T01:57:30;97774.53;;;-0.08;100.00
19520;BME280;9904;52.246;20.898;2024-01-15T01:59:57;97775.19;;;-0.06;100.00
19520;BME280;9904;52.246;20.898;2024-01-15T02:02:24;97769.59;;;-0.03;100.00
19520;BME280;9904;52.246;20.898;2024-01-15T02:04:51;97764.81;;;0.01;100.00
19520;BME280;9904;52.246;20.898;2024-01-15T02:07:17;97765.50;;;0.03;100.00
19520;BME280;9904;52.246;20.898;2024-01-15T02:09:44;97762.69;;;0.04;100.00
19520;BME280;9904;52.246;20.898;2024-01-15T02:12:12;97753.03;;;0.03;100.00
19520;BME280;9904;52.246;20.898;2024-01-15T02:14:40;97754.28;;;0.09;100.00
19520;BME280;9904;52.246;20.898;2024-01-15T02:17:06;97746.47;;;0.07;100.00
19520;BME280;9904;52.246;20.898;2024-01-15T02:19:33;97739.16;;;0.09;100.00
19520;BME280;9904;52.246;20.898;2024-01-15T02:22:00;97738.00;;;0.12;100.00
19520;BME280;9904;52.246;20.898;2024-01-15T02:24:26;97732.25;;;0.17;100.00
19520;BME280;9904;52.246;20.898;2024-01-15T02:26:53;97734.41;;;0.03;100.00
19520;BME280;9904;52.246;20.898;2024-01-15T02:29:20;97727.97;;;0.06;100.00
19520;BME280;9904;52.246;20.898;2024-01-15T02:31:46;97727.09;;;0.15;100.00
19520;BME280;9904;52.246;20.898;2024-01-15T02:34:13;97723.28;;;0.18;100.00
19520;BME280;9904;52.246;20.898;2024-01-15T02:36:39;97714.53;;;0.07;100.00
19520;BME280;9904;52.246;20.898;2024-01-15T02:39:06;97721.66;;;0.07;100.00
19520;BME280;9904;52.246;20.898;2024-01-15T02:41:33;97712.88;;;0.06;100.00
19520;BME280;9904;52.246;20.898;2024-01-15T02:43:59;97705.56;;;0.08;100.00
19520;BME280;9904;52.246;20.898;2024-01-15T02:46:26;97706.84;;;0.04;100.00
19520;BME280;9904;52.246;20.898;2024-01-15T02:48:52;97702.88;;;0.08;100.00
19520;BME280;9904;52.246;20.898;2024-01-15T02:51:19;97691.28;;;0.09;100.00
19520;BME280;9904;52.246;20.898;2024-01-15T02:53:45;97691.38;;;0.18;100.00
19520;BME280;9904;52.246;20.898;2024-01-15T02:56:12;97693.94;;;0.09;100.00
19520;BME280;9904;52.246;20.898;2024-01-15T02:58:38;97680.78;;;0.08;100.00
19520;BME280;9904;52.246;20.898;2024-01-15T03:01:05;97676.28;;;0.08;100.00
19520;BME280;9904;52.246;20.898;2024-01-15T03:03:32;97665.66;;;0.08;100.00
19520;BME280;9904;52.246;20.898;2024-01-15T03:06:01;97663.84;;;0.09;100.00
19520;BME280;9904;52.246;20.898;2024-01-15T03:08:28;97665.06;;;0.14;100.00
19520;BME280;9904;52.246;20.898;2024-01-15T03:10:55;97658.44;;;0.01;100.00
19520;BME280;9904;52.246;20.898;2024-01-15T03:13:22;97648.03;;;0.07;100.00
19520;BME280;9904;52.246;20.898;2024-01-15T03:15:48;97645.13;;;0.01;100.00
19520;BME280;9904;52.246;20.898;2024-01-15T03:18:15;97645.63;;;-0.14;100.00
19520;BME280;9904;52.246;20.898;2024-01-15T03:20:42;97646.47;;;-0.13;100.00
19520;BME280;9904;52.246;20.898;2024-01-15T03:23:08;97652.91;;;-0.16;100.00
19520;BME280;9904;52.246;20.898;2024-01-15T03:25:34;97650.56;;;-0.19;100.00
19520;BME280;9904;52.246;20.898;2024-01-15T03:28:01;97647.50;;;-0.24;100.00
19520;BME280;9904;52.246;20.898;2024-01-15T03:30:27;97641.53;;;-0.36;100.00
19520;BME280;9904;52.246;20.898;2024-01-15T03:32:55;97626.84;;;-0.30;100.00
19520;BME280;9904;52.246;20.898;2024-01-15T03:35:21;97636.38;;;-0.38;100.00
19520;BME280;9904;52.246;20.898;2024-01-15T03:37:48;97625.31;;;-0.33;100.00
19520;BME280;9904;52.246;20.898;2024-01-15T03:40:14;97626.22;;;-0.24;100.00
19520;BME280;9904;52.246;20.898;2024-01-15T03:42:45;97620.84;;;-0.14;100.00
19520;BME280;9904;52.246;20.898;2024-01-15T03:45:11;97618.34;;;-0.16;100.00
19520;BME280;9904;52.246;20.898;2024-01-15T03:47:38;97604.78;;;-0.13;100.00
19520;BME280;9904;52.246;20.898;2024-01-15T03:50:05;97604.78;;;-0.13;100.00
19520;BME280;9904;52.246;20.898;2024-01-15T03:52:32;97619.44;;;-0.09;100.00
19520;BME280;9904;52.246;20.898;2024-01-15T03:54:58;97608.63;;;-0.07;100.00
19520;BME280;9904;52.246;20.898;2024-01-15T03:57:25;97595.34;;;-0.07;100.00
19520;BME280;9904;52.246;20.898;2024-01-15T03:59:52;97589.72;;;-0.04;100.00
19520;BME280;9904;52.246;20.898;2024-01-15T04:02:18;97586.44;;;-0.16;100.00
19520;BME280;9904;52.246;20.898;2024-01-15T04:04:45;97597.25;;;-0.18;100.00
19520;BME280;9904;52.246;20.898;2024-01-15T04:07:12;97592.31;;;-0.12;100.00
19520;BME280;9904;52.246;20.898;2024-01-15T04:09:38;97587.16;;;-0.14;100.00
19520;BME280;9904;52.246;20.898;2024-01-15T04:12:05;97579.53;;;-0.09;100.00
19520;BME280;9904;52.246;20.898;2024-01-15T04:14:32;97571.56;;;-0.09;100.00
19520;BME280;9904;52.246;20.898;2024-01-15T04:16:58;97556.16;;;-0.05;100.00
19520;BME280;9904;52.246;20.898;2024-01-15T04:19:25;97567.09;;;-0.08;100.00
19520;BME280;9904;52.246;20.898;2024-01-15T04:21:51;97557.81;;;-0.04;100.00
19520;BME280;9904;52.246;20.898;2024-01-15T04:24:18;97549.56;;;-0.01;100.00
19520;BME280;9904;52.246;20.898;2024-01-15T04:26:45;97548.16;;;-0.05;100.00
19520;BME280;9904;52.246;20.898;2024-01-15T04:29:12;97543.25;;;0.00;100.00
19520;BME280;9904;52.246;20.898;2024-01-15T04:31:38;97528.84;;;-0.07;100.00
19520;BME280;9904;52.246;20.898;2024-01-15T04:34:05;97524.75;;;-0.02;100.00
19520;BME280;9904;52.246;20.898;2024-01-15T04:36:32;97512.31;;;-0.01;100.00
19520;BME280;9904;52.246;20.898;2024-01-15T04:39:04;97519.00;;;0.03;100.00
19520;BME280;9904;52.246;20.898;2024-01-15T04:41:31;97518.38;;;0.09;100.00
19520;BME280;9904;52.246;20.898;2024-01-15T04:43:57;97512.84;;;0.03;100.00
19520;BME280;9904;52.246;20.898;2024-01-15T04:46:24;97514.97;;;-0.01;100.00
19520;BME280;9904;52.246;20.898;2024-01-15T04:48:50;97512.44;;;-0.03;100.00
19520;BME280;9904;52.246;20.898;2024-01-15T04:51:18;97519.16;;;0.02;100.00
19520;BME280;9904;52.246;20.898;2024-01-15T04:53:44;97508.34;;;0.03;100.00
19520;BME280;9904;52.246;20.898;2024-01-15T04:56:11;97503.03;;;0.03;100.00
19520;BME280;9904;52.246;20.898;2024-01-15T04:58:37;97513.38;;;0.06;100.00
19520;BME280;9904;52.246;20.898;2024-01-15T05:01:04;97508.59;;;0.10;100.00
19520;BME280;9904;52.246;20.898;2024-01-15T05:03:31;97521.66;;;0.03;100.00
19520;BME280;9904;52.246;20.898;2024-01-15T05:05:57;97510.78;;;0.14;100.00
19520;BME280;9904;52.246;20.898;2024-01-15T05:08:24;97515.06;;;0.07;100.00
19520;BME280;9904;52.246;20.898;2024-01-15T05:10:50;97502.06;;;0.04;100.00
19520;BME280;9904;52.246;20.898;2024-01-15T05:13:17;97506.22;;;0.07;100.00
19520;BME280;9904;52.246;20.898;2024-01-15T05:15:43;97506.06;;;0.08;100.00
19520;BME280;9904;52.246;20.898;2024-01-15T05:18:10;97494.16;;;0.12;100.00
19520;BME280;9904;52.246;20.898;2024-01-15T05:20:37;97494.31;;;0.11;100.00
19520;BME280;9904;52.246;20.898;2024-01-15T05:23:04;97497.25;;;0.08;100.00
19520;BME280;9904;52.246;20.898;2024-01-15T05:25:30;97498.78;;;0.10;100.00
19520;BME280;9904;52.246;20.898;2024-01-15T05:27:57;97489.28;;;0.08;100.00
19520;BME280;9904;52.246;20.898;2024-01-15T05:30:24;97489.28;;;0.08;100.00
19520;BME280;9904;52.246;20.898;2024-01-15T05:32:51;97490.88;;;0.01;100.00
19520;BME280;9904;52.246;20.898;2024-01-15T05:35:17;97488.59;;;0.06;100.00
19520;BME280;9904;52.246;20.898;2024-01-15T05:37:45;97489.75;;;0.03;100.00
19520;BME280;9904;52.246;20.898;2024-01-15T05:40:12;97481.06;;;0.01;100.00
19520;BME280;9904;52.246;20.898;2024-01-15T05:42:41;97485.41;;;0.02;100.00
19520;BME280;9904;52.246;20.898;2024-01-15T05:45:08;97489.97;;;0.10;100.00
19520;BME280;9904;52.246;20.898;2024-01-15T05:47:35;97483.69;;;0.19;100.00
19520;BME280;9904;52.246;20.898;2024-01-15T05:50:02;97476.81;;;0.08;100.00
19520;BME280;9904;52.246;20.898;2024-01-15T05:52:29;97485.47;;;0.10;100.00
19520;BME280;9904;52.246;20.898;2024-01-15T05:54:55;97475.75;;;0.01;100.00
19520;BME280;9904;52.246;20.898;2024-01-15T05:57:23;97478.41;;;0.01;100.00
19520;BME280;9904;52.246;20.898;2024-01-15T05:59:49;97477.81;;;0.07;100.00
19520;BME280;9904;52.246;20.898;2024-01-15T06:02:16;97468.47;;;0.03;100.00
19520;BME280;9904;52.246;20.898;2024-01-15T06:04:42;97466.13;;;0.00;100.00
19520;BME280;9904;52.246;20.898;2024-01-15T06:07:09;97454.47;;;0.01;100.00
19520;BME280;9904;52.246;20.898;2024-01-15T06:09:36;97460.41;;;-0.05;100.00
19520;BME280;9904;52.246;20.898;2024-01-15T06:12:03;97451.75;;;-0.07;100.00
19520;BME280;9904;52.246;20.898;2024-01-15T06:14:29;97455.63;;;-0.02;100.00
19520;BME280;9904;52.246;20.898;2024-01-15T06:16:56;97447.81;;;-0.03;100.00
19520;BME280;9904;52.246;20.898;2024-01-15T06:19:22;97452.59;;;-0.07;100.00
19520;BME280;9904;52.246;20.898;2024-01-15T06:21:50;97452.28;;;-0.04;100.00
19520;BME280;9904;52.246;20.898;2024-01-15T06:24:17;97458.91;;;-0.08;100.00
19520;BME280;9904;52.246;20.898;2024-01-15T06:26:47;97454.88;;;0.06;100.00
19520;BME280;9904;52.246;20.898;2024-01-15T06:29:14;97453.59;;;-0.08;100.00
19520;BME280;9904;52.246;20.898;2024-01-15T06:31:40;97451.75;;;-0.07;100.00
19520;BME280;9904;52.246;20.898;2024-01-15T06:34:07;97447.34;;;0.02;100.00
19520;BME280;9904;52.246;20.898;2024-01-15T06:36:34;97438.94;;;-0.12;100.00
19520;BME280;9904;52.246;20.898;2024-01-15T06:39:01;97435.44;;;-0.12;100.00
19520;BME280;9904;52.246;20.898;2024-01-15T06:41:27;97437.41;;;-0.14;100.00
19520;BME280;9904;52.246;20.898;2024-01-15T06:43:54;97427.16;;;-0.09;100.00
19520;BME280;9904;52.246;20.898;2024-01-15T06:46:22;97436.56;;;-0.15;100.00
19520;BME280;9904;52.246;20.898;2024-01-15T06:48:49;97449.31;;;-0.01;100.00
19520;BME280;9904;52.246;20.898;2024-01-15T06:51:16;97429.88;;;-0.01;100.00
19520;BME280;9904;52.246;20.898;2024-01-15T06:53:43;97442.22;;;0.08;100.00
19520;BME280;9904;52.246;20.898;2024-01-15T06:56:12;97435.72;;;0.03;100.00
19520;BME280;9904;52.246;20.898;2024-01-15T06:58:39;97444.22;;;0.06;100.00
19520;BME280;9904;52.246;20.898;2024-01-15T07:01:06;97433.44;;;0.08;100.00
19520;BME280;9904;52.246;20.898;2024-01-15T07:03:34;97437.41;;;0.04;100.00
19520;BME280;9904;52.246;20.898;2024-01-15T07:06:01;97437.94;;;0.07;100.00
19520;BME280;9904;52.246;20.898;2024-01-15T07:08:28;97444.69;;;0.02;100.00
19520;BME280;9904;52.246;20.898;2024-01-15T07:10:55;97438.97;;;-0.04;100.00
19520;BME280;9904;52.246;20.898;2024-01-15T07:13:22;97446.28;;;-0.06;100.00
19520;BME280;9904;52.246;20.898;2024-01-15T07:15:49;97437.69;;;0.01;100.00
19520;BME280;9904;52.246;20.898;2024-01-15T07:18:17;97440.53;;;-0.01;100.00
19520;BME280;9904;52.246;20.898;2024-01-15T07:20:44;97448.44;;;-0.09;100.00
19520;BME280;9904;52.246;20.898;2024-01-15T07:23:11;97447.81;;;-0.21;100.00
19520;BME280;9904;52.246;20.898;2024-01-15T07:25:38;97442.81;;;-0.24;100.00
19520;BME280;9904;52.246;20.898;2024-01-15T07:28:06;97449.97;;;-0.25;100.00
19520;BME280;9904;52.246;20.898;2024-01-15T07:30:33;97444.94;;;-0.28;100.00
19520;BME280;9904;52.246;20.898;2024-01-15T07:33:00;97440.84;;;-0.22;100.00
19520;BME280;9904;52.246;20.898;2024-01-15T07:35:27;97448.56;;;-0.29;100.00
19520;BME280;9904;52.246;20.898;2024-01-15T07:37:54;97450.09;;;-0.26;100.00
19520;BME280;9904;52.246;20.898;2024-01-15T07:40:21;97455.13;;;-0.23;100.00
19520;BME280;9904;52.246;20.898;2024-01-15T07:42:48;97450.94;;;-0.26;100.00
19520;BME280;9904;52.246;20.898;2024-01-15T07:45:15;97458.75;;;-0.24;100.00
19520;BME280;9904;52.246;20.898;2024-01-15T07:47:41;97461.28;;;-0.23;100.00
19520;BME280;9904;52.246;20.898;2024-01-15T07:50:08;97448.03;;;-0.14;100.00
19520;BME280;9904;52.246;20.898;2024-01-15T07:52:36;97453.41;;;-0.06;100.00
19520;BME280;9904;52.246;20.898;2024-01-15T07:55:03;97448.66;;;-0.21;100.00
19520;BME280;9904;52.246;20.898;2024-01-15T07:57:31;97459.00;;;-0.18;100.00
19520;BME280;9904;52.246;20.898;2024-01-15T07:59:58;97459.34;;;-0.12;100.00
19520;BME280;9904;52.246;20.898;2024-01-15T08:02:25;97468.41;;;-0.41;100.00
19520;BME280;9904;52.246;20.898;2024-01-15T08:04:51;97460.88;;;-0.46;100.00
19520;BME280;9904;52.246;20.898;2024-01-15T08:07:18;97467.59;;;-0.42;100.00
19520;BME280;9904;52.246;20.898;2024-01-15T08:09:45;97447.16;;;-0.41;100.00
19520;BME280;9904;52.246;20.898;2024-01-15T08:12:14;97465.59;;;-0.40;100.00
19520;BME280;9904;52.246;20.898;2024-01-15T08:14:41;97457.16;;;-0.53;100.00
19520;BME280;9904;52.246;20.898;2024-01-15T08:17:07;97456.47;;;-0.55;100.00
19520;BME280;9904;52.246;20.898;2024-01-15T08:19:34;97460.19;;;-0.48;100.00
19520;BME280;9904;52.246;20.898;2024-01-15T08:22:01;97455.41;;;-0.44;100.00
19520;BME280;9904;52.246;20.898;2024-01-15T08:24:27;97463.38;;;-0.44;100.00
19520;BME280;9904;52.246;20.898;2024-01-15T08:26:55;97460.69;;;-0.35;100.00
19520;BME280;9904;52.246;20.898;2024-01-15T08:29:22;97463.38;;;-0.26;100.00
19520;BME280;9904;52.246;20.898;2024-01-15T08:31:51;97461.94;;;-0.21;100.00
19520;BME280;9904;52.246;20.898;2024-01-15T08:34:18;97463.97;;;-0.14;100.00
19520;BME280;9904;52.246;20.898;2024-01-15T08:36:44;97466.50;;;0.05;100.00
19520;BME280;9904;52.246;20.898;2024-01-15T08:39:11;97465.19;;;0.09;100.00
19520;BME280;9904;52.246;20.898;2024-01-15T08:41:38;97470.00;;;-0.12;100.00
19520;BME280;9904;52.246;20.898;2024-01-15T08:44:04;97457.03;;;-0.15;100.00
19520;BME280;9904;52.246;20.898;2024-01-15T08:46:31;97465.22;;;-0.27;100.00
19520;BME280;9904;52.246;20.898;2024-01-15T08:48:57;97466.97;;;-0.36;100.00
19520;BME280;9904;52.246;20.898;2024-01-15T08:51:24;97465.47;;;-0.38;100.00
19520;BME280;9904;52.246;20.898;2024-01-15T08:53:51;97470.97;;;-0.32;100.00
19520;BME280;9904;52.246;20.898;2024-01-15T08:56:18;97470.28;;;-0.34;100.00
19520;BME280;9904;52.246;20.898;2024-01-15T08:58:44;97470.25;;;-0.24;100.00
19520;BME280;9904;52.246;20.898;2024-01-15T09:01:12;97467.41;;;-0.22;100.00
19520;BME280;9904;52.246;20.898;2024-01-15T09:03:40;97480.19;;;-0.26;100.00
19520;BME280;9904;52.246;20.898;2024-01-15T09:06:08;97478.22;;;-0.24;100.00
19520;BME280;9904;52.246;20.898;2024-01-15T09:08:36;97480.16;;;-0.08;100.00
19520;BME280;9904;52.246;20.898;2024-01-15T09:11:03;97479.25;;;0.02;100.00
19520;BME280;9904;52.246;20.898;2024-01-15T09:13:30;97487.69;;;0.15;100.00
19520;BME280;9904;52.246;20.898;2024-01-15T09:15:58;97481.59;;;0.75;98.54
19520;BME280;9904;52.246;20.898;2024-01-15T09:18:25;97486.00;;;1.36;93.62
19520;BME280;9904;52.246;20.898;2024-01-15T09:20:52;97474.91;;;1.06;93.37
19520;BME280;9904;52.246;20.898;2024-01-15T09:23:19;97479.00;;;0.92;94.30
19520;BME280;9904;52.246;20.898;2024-01-15T09:25:46;97481.44;;;1.12;92.78
19520;BME280;9904;52.246;20.898;2024-01-15T09:28:14;97473.69;;;0.66;94.47
19520;BME280;9904;52.246;20.898;2024-01-15T09:30:41;97466.88;;;0.37;95.81
19520;BME280;9904;52.246;20.898;2024-01-15T09:33:07;97457.44;;;0.16;96.45
19520;BME280;9904;52.246;20.898;2024-01-15T09:35:34;97463.97;;;0.22;96.91
19520;BME280;9904;52.246;20.898;2024-01-15T09:38:01;97460.84;;;0.26;96.50
19520;BME280;9904;52.246;20.898;2024-01-15T09:40:31;97466.09;;;0.44;94.08
19520;BME280;9904;52.246;20.898;2024-01-15T09:42:58;97473.06;;;0.37;94.11
19520;BME280;9904;52.246;20.898;2024-01-15T09:45:26;97465.19;;;0.36;94.06
19520;BME280;9904;52.246;20.898;2024-01-15T09:47:53;97466.53;;;0.31;93.77
19520;BME280;9904;52.246;20.898;2024-01-15T09:50:20;97459.53;;;0.30;93.28
19520;BME280;9904;52.246;20.898;2024-01-15T09:52:47;97471.84;;;0.31;92.81
19520;BME280;9904;52.246;20.898;2024-01-15T09:55:15;97462.94;;;0.23;92.52
19520;BME280;9904;52.246;20.898;2024-01-15T09:57:44;97460.16;;;0.24;92.26
19520;BME280;9904;52.246;20.898;2024-01-15T10:00:12;97448.19;;;0.28;91.87
19520;BME280;9904;52.246;20.898;2024-01-15T10:02:40;97459.88;;;0.36;90.27
19520;BME280;9904;52.246;20.898;2024-01-15T10:05:07;97467.09;;;0.43;89.78
19520;BME280;9904;52.246;20.898;2024-01-15T10:07:35;97447.94;;;0.40;90.27
19520;BME280;9904;52.246;20.898;2024-01-15T10:10:03;97439.38;;;0.28;90.35
19520;BME280;9904;52.246;20.898;2024-01-15T10:12:30;97439.56;;;0.35;89.66
19520;BME280;9904;52.246;20.898;2024-01-15T10:14:57;97439.75;;;0.33;90.04
19520;BME280;9904;52.246;20.898;2024-01-15T10:17:24;97444.25;;;0.33;89.61
19520;BME280;9904;52.246;20.898;2024-01-15T10:19:53;97448.25;;;0.37;89.48
19520;BME280;9904;52.246;20.898;2024-01-15T10:22:20;97458.94;;;0.45;89.69
19520;BME280;9904;52.246;20.898;2024-01-15T10:24:47;97445.06;;;0.33;89.70
19520;BME280;9904;52.246;20.898;2024-01-15T10:27:15;97471.78;;;0.23;91.22
19520;BME280;9904;52.246;20.898;2024-01-15T10:29:42;97448.41;;;0.09;93.05
19520;BME280;9904;52.246;20.898;2024-01-15T10:32:09;97446.03;;;0.06;93.54
19520;BME280;9904;52.246;20.898;2024-01-15T10:34:40;97458.06;;;0.10;93.98
19520;BME280;9904;52.246;20.898;2024-01-15T10:37:08;97442.28;;;0.17;93.49
19520;BME280;9904;52.246;20.898;2024-01-15T10:39:37;97453.38;;;0.30;93.67
19520;BME280;9904;52.246;20.898;2024-01-15T10:42:05;97449.03;;;0.29;93.87
19520;BME280;9904;52.246;20.898;2024-01-15T10:44:32;97441.72;;;0.31;93.55
19520;BME280;9904;52.246;20.898;2024-01-15T10:47:00;97451.91;;;0.36;93.34
19520;BME280;9904;52.246;20.898;2024-01-15T10:49:27;97440.72;;;0.32;93.70
19520;BME280;9904;52.246;20.898;2024-01-15T10:52:00;97456.28;;;0.19;94.10
19520;BME280;9904;52.246;20.898;2024-01-15T10:54:28;97447.16;;;0.21;94.21
19520;BME280;9904;52.246;20.898;2024-01-15T10:56:56;97446.69;;;0.26;94.66
19520;BME280;9904;52.246;20.898;2024-01-15T10:59:23;97440.53;;;0.25;94.81
19520;BME280;9904;52.246;20.898;2024-01-15T11:01:50;97452.00;;;0.26;94.40
19520;BME280;9904;52.246;20.898;2024-01-15T11:04:21;97452.63;;;0.20;94.97
19520;BME280;9904;52.246;20.898;2024-01-15T11:06:52;97446.16;;;0.22;94.34
19520;BME280;9904;52.246;20.898;2024-01-15T11:09:23;97443.50;;;0.22;94.96
19520;BME280;9904;52.246;20.898;2024-01-15T11:11:52;97433.16;;;0.19;94.38
19520;BME280;9904;52.246;20.898;2024-01-15T11:14:50;97447.16;;;0.21;94.77
19520;BME280;9904;52.246;20.898;2024-01-15T11:17:18;97444.28;;;0.14;94.76
19520;BME280;9904;52.246;20.898;2024-01-15T11:19:46;97439.16;;;0.21;94.60
19520;BME280;9904;52.246;20.898;2024-01-15T11:24:56;97420.31;;;0.33;93.25
19520;BME280;9904;52.246;20.898;2024-01-15T11:27:43;97422.44;;;0.29;92.34
19520;BME280;9904;52.246;20.898;2024-01-15T11:30:14;97433.09;;;0.29;92.35
19520;BME280;9904;52.246;20.898;2024-01-15T11:32:41;97420.44;;;0.31;92.16
19520;BME280;9904;52.246;20.898;2024-01-15T11:35:09;97421.97;;;0.34;92.64
19520;BME280;9904;52.246;20.898;2024-01-15T11:42:59;97429.84;;;0.43;91.11
19520;BME280;9904;52.246;20.898;2024-01-15T11:45:26;97426.91;;;0.28;92.09
19520;BME280;9904;52.246;20.898;2024-01-15T11:50:30;97408.16;;;0.30;93.50
19520;BME280;9904;52.246;20.898;2024-01-15T11:53:01;97415.53;;;0.44;93.63
19520;BME280;9904;52.246;20.898;2024-01-15T11:55:39;97411.00;;;0.37;93.76
19520;BME280;9904;52.246;20.898;2024-01-15T11:58:11;97420.25;;;0.24;95.11
19520;BME280;9904;52.246;20.898;2024-01-15T12:00:43;97423.22;;;0.21;95.91
19520;BME280;9904;52.246;20.898;2024-01-15T12:03:11;97414.53;;;0.19;94.69
19520;BME280;9904;52.246;20.898;2024-01-15T12:05:38;97404.13;;;0.26;94.81
19520;BME280;9904;52.246;20.898;2024-01-15T12:08:05;97408.56;;;0.17;95.26
19520;BME280;9904;52.246;20.898;2024-01-15T12:10:39;97413.25;;;0.23;95.39
19520;BME280;9904;52.246;20.898;2024-01-15T12:13:13;97416.84;;;0.14;95.61
19520;BME280;9904;52.246;20.898;2024-01-15T12:15:42;97410.19;;;0.10;95.43
19520;BME280;9904;52.246;20.898;2024-01-15T12:18:14;97405.25;;;-0.03;97.79
19520;BME280;9904;52.246;20.898;2024-01-15T12:20:42;97412.38;;;0.14;98.64
19520;BME280;9904;52.246;20.898;2024-01-15T12:23:09;97404.63;;;0.29;97.45
19520;BME280;9904;52.246;20.898;2024-01-15T12:25:38;97391.56;;;0.36;96.20
19520;BME280;9904;52.246;20.898;2024-01-15T12:28:05;97399.06;;;0.41;95.37
19520;BME280;9904;52.246;20.898;2024-01-15T12:30:33;97404.75;;;0.20;96.70
19520;BME280;9904;52.246;20.898;2024-01-15T12:33:05;97411.09;;;0.01;99.59
19520;BME280;9904;52.246;20.898;2024-01-15T12:35:33;97408.78;;;-0.39;100.00
19520;BME280;9904;52.246;20.898;2024-01-15T12:38:01;97399.00;;;-0.56;100.00
19520;BME280;9904;52.246;20.898;2024-01-15T12:40:31;97401.66;;;-0.56;100.00
19520;BME280;9904;52.246;20.898;2024-01-15T12:43:00;97392.25;;;-0.51;100.00
19520;BME280;9904;52.246;20.898;2024-01-15T12:45:26;97394.22;;;-0.53;100.00
19520;BME280;9904;52.246;20.898;2024-01-15T12:47:53;97392.31;;;-0.42;100.00
19520;BME280;9904;52.246;20.898;2024-01-15T12:50:24;97400.66;;;-0.19;100.00
19520;BME280;9904;52.246;20.898;2024-01-15T12:52:51;97393.41;;;-0.09;100.00
19520;BME280;9904;52.246;20.898;2024-01-15T12:55:17;97404.50;;;-0.13;100.00
19520;BME280;9904;52.246;20.898;2024-01-15T12:57:44;97401.03;;;-0.14;100.00
19520;BME280;9904;52.246;20.898;2024-01-15T13:00:12;97397.69;;;-0.16;100.00
19520;BME280;9904;52.246;20.898;2024-01-15T13:02:41;97412.94;;;-0.18;100.00
19520;BME280;9904;52.246;20.898;2024-01-15T13:05:09;97420.25;;;-0.20;100.00
19520;BME280;9904;52.246;20.898;2024-01-15T13:07:38;97421.09;;;-0.38;100.00